createdAt,value
2019-05-03T00:02:12.299Z,9.70
2019-05-03T00:04:44.708Z,9.70
2019-05-03T00:07:15.378Z,9.60
2019-05-03T00:09:46.139Z,9.60
2019-05-03T00:12:16.695Z,9.50
2019-05-03T00:14:49.507Z,9.50
2019-05-03T00:17:21.778Z,9.50
2019-05-03T00:19:52.826Z,9.40
2019-05-03T00:22:23.516Z,9.40
2019-05-03T00:25:04.935Z,9.40
2019-05-03T00:30:15.504Z,9.30
2019-05-03T00:32:46.058Z,9.10
2019-05-03T00:35:22.586Z,9.30
2019-05-03T00:37:54.813Z,9.30
2019-05-03T00:40:28.953Z,9.30
2019-05-03T00:42:59.605Z,9.30
2019-05-03T00:45:31.601Z,9.20
2019-05-03T00:48:02.239Z,9.10
2019-05-03T00:50:32.782Z,9.10
2019-05-03T00:53:03.344Z,9.10
2019-05-03T00:55:33.910Z,9.10
2019-05-03T00:58:04.575Z,9.00
2019-05-03T01:00:35.121Z,8.90
2019-05-03T01:03:05.693Z,8.90
2019-05-03T01:05:36.236Z,8.80
2019-05-03T01:08:07.521Z,8.70
2019-05-03T01:10:38.078Z,8.60
2019-05-03T01:13:08.655Z,8.60
2019-05-03T01:15:49.266Z,8.60
2019-05-03T01:18:21.801Z,8.50
2019-05-03T01:20:52.482Z,8.50
2019-05-03T01:23:23.078Z,8.40
2019-05-03T01:25:53.616Z,8.30
2019-05-03T01:28:24.170Z,8.40
2019-05-03T01:30:54.743Z,8.40
2019-05-03T01:33:25.259Z,8.40
2019-05-03T01:35:55.827Z,8.30
2019-05-03T01:38:26.301Z,8.30
2019-05-03T01:40:56.871Z,8.40
2019-05-03T01:43:27.455Z,8.40
2019-05-03T01:45:57.996Z,8.40
2019-05-03T01:48:53.519Z,8.50
2019-05-03T01:51:45.988Z,8.60
2019-05-03T01:54:16.549Z,8.50
2019-05-03T01:56:56.777Z,8.30
2019-05-03T01:59:19.188Z,8.50
2019-05-03T02:02:08.249Z,8.50
2019-05-03T02:04:42.580Z,8.50
2019-05-03T02:07:13.137Z,8.50
2019-05-03T02:09:43.672Z,8.50
2019-05-03T02:12:14.252Z,8.50
2019-05-03T02:14:44.820Z,8.40
2019-05-03T02:17:15.380Z,8.60
2019-05-03T02:19:46.965Z,8.40
2019-05-03T02:22:17.542Z,8.50
2019-05-03T02:24:48.105Z,8.50
2019-05-03T02:27:18.586Z,8.50
2019-05-03T02:29:49.135Z,8.50
2019-05-03T02:32:23.228Z,8.60
2019-05-03T02:34:53.648Z,8.60
2019-05-03T02:37:24.257Z,8.60
2019-05-03T02:39:57.808Z,8.50
2019-05-03T02:42:28.392Z,8.50
2019-05-03T02:44:59.595Z,8.50
2019-05-03T02:47:49.033Z,8.60
2019-05-03T02:50:20.936Z,8.50
2019-05-03T02:55:35.921Z,8.70
2019-05-03T02:58:05.841Z,8.60
2019-05-03T03:01:01.837Z,8.70
2019-05-03T03:03:36.073Z,8.60
2019-05-03T03:06:06.993Z,8.50
2019-05-03T03:08:39.657Z,8.60
2019-05-03T03:11:10.184Z,8.60
2019-05-03T03:13:40.766Z,8.50
2019-05-03T03:16:11.623Z,8.40
2019-05-03T03:18:42.176Z,8.40
2019-05-03T03:21:16.437Z,8.30
2019-05-03T03:24:02.135Z,8.10
2019-05-03T03:26:38.002Z,7.90
2019-05-03T03:29:06.808Z,8.00
2019-05-03T03:32:19.631Z,7.90
2019-05-03T03:35:12.762Z,8.00
2019-05-03T03:37:42.762Z,8.10
2019-05-03T03:40:16.024Z,8.10
2019-05-03T03:42:48.390Z,8.20
2019-05-03T03:45:19.006Z,8.20
2019-05-03T03:47:56.471Z,8.20
2019-05-03T03:50:27.526Z,8.20
2019-05-03T03:52:59.801Z,8.20
2019-05-03T03:55:32.465Z,8.10
2019-05-03T06:06:00.799Z,7.80
2019-05-03T06:08:37.429Z,7.90
2019-05-03T06:11:27.179Z,8.10
2019-05-03T06:14:16.721Z,8.10
2019-05-03T06:16:56.006Z,8.20
2019-05-03T06:19:52.279Z,8.30
2019-05-03T06:22:47.526Z,8.20
2019-05-03T06:25:35.352Z,8.30
2019-05-03T06:28:19.940Z,8.20
2019-05-03T06:30:51.809Z,8.10
2019-05-03T06:33:24.351Z,8.10
2019-05-03T06:35:54.757Z,8.20
2019-05-03T06:38:25.452Z,8.30
2019-05-03T06:40:56.453Z,8.30
2019-05-03T06:43:27.049Z,8.30
2019-05-03T06:45:57.545Z,8.40
2019-05-03T06:48:31.856Z,8.50
2019-05-03T06:51:08.764Z,8.70
2019-05-03T06:53:34.522Z,8.80
2019-05-03T06:56:05.364Z,8.90
2019-05-03T06:58:36.605Z,9.10
2019-05-03T07:01:29.248Z,9.40
2019-05-03T07:04:07.697Z,9.50
2019-05-03T07:06:57.452Z,9.60
2019-05-03T07:09:35.481Z,9.80
2019-05-03T07:12:06.078Z,10.00
2019-05-03T07:14:36.649Z,10.10
2019-05-03T07:17:07.300Z,10.30
2019-05-03T07:19:38.126Z,10.30
2019-05-03T07:22:09.007Z,10.30
2019-05-03T07:24:40.846Z,10.40
2019-05-03T07:27:11.615Z,10.60
2019-05-03T07:29:42.179Z,10.70
2019-05-03T07:32:13.074Z,10.60
2019-05-03T07:34:45.314Z,10.90
2019-05-03T07:37:16.018Z,10.90
2019-05-03T07:39:46.697Z,10.90
2019-05-03T07:42:18.483Z,11.00
2019-05-03T07:44:50.200Z,11.10
2019-05-03T07:47:20.734Z,11.40
2019-05-03T07:49:51.655Z,11.50
2019-05-03T07:52:22.222Z,11.50
2019-05-03T07:54:52.799Z,11.40
2019-05-03T07:57:28.768Z,11.50
2019-05-03T07:59:59.283Z,11.60
2019-05-03T08:02:29.958Z,11.80
2019-05-03T08:05:00.584Z,12.00
2019-05-03T08:07:31.165Z,12.10
2019-05-03T08:10:01.779Z,12.20
2019-05-03T08:12:32.395Z,12.10
2019-05-03T08:15:05.260Z,12.10
2019-05-03T08:17:35.312Z,12.20
2019-05-03T08:20:06.046Z,12.10
2019-05-03T08:22:36.600Z,12.20
2019-05-03T08:25:07.732Z,12.10
2019-05-03T08:27:38.393Z,12.40
2019-05-03T08:30:11.248Z,12.50
2019-05-03T08:33:05.523Z,12.50
2019-05-03T08:35:41.526Z,12.80
2019-05-03T08:38:12.088Z,12.70
2019-05-03T08:40:47.602Z,12.60
2019-05-03T08:43:18.268Z,12.50
2019-05-03T08:45:49.390Z,12.40
2019-05-03T08:48:20.143Z,12.50
2019-05-03T08:50:50.697Z,12.50
2019-05-03T08:53:21.582Z,12.50
2019-05-03T08:55:52.370Z,12.50
2019-05-03T08:58:22.892Z,12.30
2019-05-03T09:00:54.682Z,12.10
2019-05-03T09:03:25.327Z,12.20
2019-05-03T09:05:56.467Z,12.30
2019-05-03T09:08:27.217Z,12.30
2019-05-03T09:11:05.829Z,12.10
2019-05-03T09:13:56.947Z,12.40
2019-05-03T09:16:27.495Z,12.60
2019-05-03T09:18:57.986Z,12.60
2019-05-03T09:21:28.553Z,12.50
2019-05-03T09:23:59.250Z,12.70
2019-05-03T09:26:29.858Z,12.90
2019-05-03T09:29:00.456Z,12.90
2019-05-03T09:31:31.031Z,12.70
2019-05-03T09:34:01.677Z,12.80
2019-05-03T09:36:34.377Z,13.00
2019-05-03T09:39:05.910Z,13.10
2019-05-03T09:41:36.482Z,13.00
2019-05-03T09:44:07.031Z,12.70
2019-05-03T09:46:37.605Z,12.50
2019-05-03T09:49:13.405Z,12.30
2019-05-03T09:51:40.754Z,12.10
2019-05-03T09:54:17.230Z,12.10
2019-05-03T09:57:00.352Z,12.10
2019-05-03T09:59:31.213Z,12.00
2019-05-03T10:02:04.729Z,12.00
2019-05-03T10:04:36.918Z,12.10
2019-05-03T10:07:07.437Z,12.10
2019-05-03T10:09:37.989Z,12.40
2019-05-03T10:12:12.663Z,12.40
2019-05-03T10:14:45.181Z,12.60
2019-05-03T10:17:45.595Z,12.60
2019-05-03T10:20:17.204Z,12.90
2019-05-03T10:22:48.184Z,13.20
2019-05-03T10:25:18.879Z,13.20
2019-05-03T10:27:49.675Z,13.30
2019-05-03T10:30:28.471Z,13.30
2019-05-03T10:33:08.147Z,13.20
2019-05-03T10:35:39.023Z,12.90
2019-05-03T10:38:09.834Z,12.70
2019-05-03T10:40:40.628Z,12.60
2019-05-03T10:43:11.664Z,12.70
2019-05-03T10:45:42.247Z,12.90
2019-05-03T10:48:15.268Z,12.80
2019-05-03T10:50:45.081Z,12.70
2019-05-03T10:53:35.632Z,12.90
2019-05-03T10:56:23.388Z,13.10
2019-05-03T10:58:57.693Z,12.90
2019-05-03T11:01:36.453Z,13.00
2019-05-03T11:04:07.324Z,13.40
2019-05-03T11:06:38.015Z,13.30
2019-05-03T11:09:09.229Z,13.20
2019-05-03T11:11:39.897Z,13.40
2019-05-03T11:14:10.554Z,13.40
2019-05-03T11:16:41.345Z,13.60
2019-05-03T11:19:12.003Z,13.40
2019-05-03T11:21:42.587Z,13.50
2019-05-03T11:27:00.035Z,13.60
2019-05-03T11:29:29.393Z,13.70
2019-05-03T11:32:19.400Z,13.90
2019-05-03T11:35:05.099Z,13.60
2019-05-03T11:37:45.250Z,13.60
2019-05-03T11:40:15.701Z,13.60
2019-05-03T11:42:48.033Z,13.60
2019-05-03T11:45:19.061Z,13.70
2019-05-03T11:47:49.678Z,13.80
2019-05-03T11:50:20.260Z,14.10
2019-05-03T11:52:50.866Z,14.00
2019-05-03T11:55:21.470Z,14.10
2019-05-03T11:57:52.048Z,14.10
2019-05-03T12:00:29.037Z,14.10
2019-05-03T12:03:22.475Z,14.00
2019-05-03T12:05:55.254Z,13.90
2019-05-03T12:08:25.908Z,14.10
2019-05-03T12:11:01.069Z,14.10
2019-05-03T12:13:32.291Z,14.30
2019-05-03T12:16:15.092Z,14.30
2019-05-03T12:18:48.962Z,14.10
2019-05-03T12:21:09.220Z,14.40
2019-05-03T12:23:40.353Z,14.10
2019-05-03T12:26:13.574Z,14.10
2019-05-03T12:28:45.523Z,14.20
2019-05-03T12:31:29.453Z,14.30
2019-05-03T12:33:48.232Z,14.30
2019-05-03T12:36:18.800Z,14.10
2019-05-03T12:38:49.361Z,13.70
2019-05-03T12:41:19.931Z,13.70
2019-05-03T12:43:50.523Z,13.40
2019-05-03T12:46:21.124Z,13.10
2019-05-03T12:48:51.708Z,13.00
2019-05-03T12:51:22.310Z,12.90
2019-05-03T12:53:55.043Z,12.70
2019-05-03T12:56:32.324Z,12.70
2019-05-03T12:59:16.520Z,12.70
2019-05-03T13:02:08.728Z,12.60
2019-05-03T13:04:39.744Z,12.60
2019-05-03T13:07:17.168Z,12.60
2019-05-03T13:09:47.712Z,12.80
2019-05-03T13:12:20.465Z,12.90
2019-05-03T13:14:51.079Z,12.80
2019-05-03T13:17:38.220Z,13.00
2019-05-03T13:20:10.390Z,13.00
2019-05-03T13:22:40.997Z,13.30
2019-05-03T13:25:12.136Z,13.50
2019-05-03T13:27:42.730Z,13.60
2019-05-03T13:30:16.579Z,13.60
2019-05-03T13:32:47.195Z,13.80
2019-05-03T13:38:06.715Z,13.90
2019-05-03T13:40:37.277Z,13.90
2019-05-03T13:43:07.985Z,13.70
2019-05-03T13:45:38.636Z,13.70
2019-05-03T13:48:09.240Z,13.50
2019-05-03T13:50:39.792Z,13.70
2019-05-03T13:53:10.366Z,13.80
2019-05-03T13:55:40.914Z,14.10
2019-05-03T13:58:11.493Z,14.70
2019-05-03T14:00:42.035Z,14.50
2019-05-03T14:03:12.630Z,14.00
2019-05-03T14:05:44.613Z,13.50
2019-05-03T14:08:15.769Z,13.10
2019-05-03T14:10:46.308Z,12.90
2019-05-03T14:13:16.898Z,12.70
2019-05-03T14:15:47.510Z,12.70
2019-05-03T14:18:18.062Z,12.70
2019-05-03T14:24:01.812Z,12.80
2019-05-03T14:26:32.404Z,12.90
2019-05-03T14:29:05.553Z,12.80
2019-05-03T14:34:17.673Z,13.00
2019-05-03T14:36:48.301Z,12.60
2019-05-03T14:39:18.847Z,13.00
2019-05-03T14:41:49.396Z,13.10
2019-05-03T14:44:19.992Z,13.50
2019-05-03T14:46:50.626Z,13.50
2019-05-03T14:49:21.258Z,13.30
2019-05-03T14:51:51.823Z,13.20
2019-05-03T14:54:24.935Z,13.30
2019-05-03T14:57:02.384Z,14.00
2019-05-03T14:59:54.849Z,13.60
2019-05-03T15:02:50.046Z,13.10
2019-05-03T15:05:16.516Z,13.00
2019-05-03T15:07:47.176Z,12.90
2019-05-03T15:10:17.829Z,13.00
2019-05-03T15:12:48.393Z,13.10
2019-05-03T15:15:20.027Z,12.80
2019-05-03T15:17:50.603Z,12.60
2019-05-03T15:20:21.549Z,12.50
2019-05-03T15:22:52.152Z,12.40
2019-05-03T15:25:24.921Z,12.30
2019-05-03T15:27:55.489Z,12.20
2019-05-03T15:30:26.104Z,12.20
2019-05-03T15:33:00.693Z,12.10
2019-05-03T15:38:24.649Z,12.00
2019-05-03T15:40:55.225Z,11.90
2019-05-03T15:43:35.000Z,11.90
2019-05-03T15:46:30.557Z,11.80
2019-05-03T15:51:37.016Z,12.40
2019-05-03T15:54:07.665Z,13.30
2019-05-03T15:56:38.289Z,13.60
2019-05-03T15:59:08.997Z,13.30
2019-05-03T16:01:39.517Z,13.20
2019-05-03T16:04:10.129Z,13.10
2019-05-03T16:06:40.734Z,13.00
2019-05-03T16:09:11.270Z,12.90
2019-05-03T16:11:41.843Z,12.90
2019-05-03T16:14:12.428Z,12.90
2019-05-03T16:16:44.994Z,13.10
2019-05-03T16:19:15.145Z,12.90
2019-05-03T16:21:45.746Z,12.70
2019-05-03T16:24:16.299Z,12.60
2019-05-03T16:27:05.016Z,12.50
2019-05-03T16:29:35.694Z,12.50
2019-05-03T16:32:06.276Z,12.30
2019-05-03T16:34:36.842Z,12.30
2019-05-03T16:37:07.447Z,12.30
2019-05-03T16:39:38.016Z,12.20
2019-05-03T16:42:10.157Z,12.20
2019-05-03T16:47:24.822Z,11.90
2019-05-03T16:49:55.022Z,11.80
2019-05-03T16:52:25.930Z,11.70
2019-05-03T16:54:58.450Z,11.70
2019-05-03T16:57:29.109Z,11.70
2019-05-03T16:59:59.706Z,11.80
2019-05-03T17:02:30.252Z,11.80
2019-05-03T17:05:07.694Z,11.90
2019-05-03T17:07:52.812Z,11.90
2019-05-03T17:10:30.600Z,11.90
2019-05-03T17:13:01.187Z,11.90
2019-05-03T17:15:31.932Z,11.90
2019-05-03T17:18:02.521Z,11.90
2019-05-03T17:20:34.717Z,12.00
2019-05-03T17:23:07.017Z,12.00
2019-05-03T17:25:38.942Z,12.00
2019-05-03T17:28:09.516Z,12.10
2019-05-03T17:30:40.096Z,12.10
2019-05-03T17:33:10.632Z,12.20
2019-05-03T17:35:41.219Z,12.20
2019-05-03T17:38:11.744Z,12.20
2019-05-03T17:41:04.318Z,12.20
2019-05-03T17:43:39.124Z,12.20
2019-05-03T17:46:10.448Z,12.20
2019-05-03T17:48:41.000Z,12.30
2019-05-03T17:51:14.959Z,12.40
2019-05-03T17:54:00.524Z,12.60
2019-05-03T17:56:48.472Z,12.70
2019-05-03T17:59:37.960Z,12.90
2019-05-03T18:02:26.058Z,13.00
2019-05-03T18:08:18.530Z,13.10
2019-05-03T18:10:55.360Z,13.00
2019-05-03T18:13:25.945Z,12.90
2019-05-03T18:15:56.459Z,12.80
2019-05-03T18:18:27.024Z,12.70
2019-05-03T18:20:57.603Z,12.50
2019-05-03T18:23:28.176Z,12.50
2019-05-03T18:25:58.743Z,12.50
2019-05-03T18:28:29.315Z,12.50
2019-05-03T18:30:59.883Z,12.40
2019-05-03T18:33:30.451Z,12.40
2019-05-03T18:36:01.004Z,12.50
2019-05-03T18:38:39.254Z,12.40
2019-05-03T18:41:12.016Z,12.40
2019-05-03T18:43:57.420Z,12.30
2019-05-03T18:46:34.354Z,12.10
2019-05-03T18:49:04.982Z,12.00
2019-05-03T18:54:17.831Z,11.90
2019-05-03T18:56:48.404Z,11.70
2019-05-03T18:59:18.989Z,11.50
2019-05-03T19:01:49.551Z,11.40
2019-05-03T19:04:38.022Z,11.40
2019-05-03T19:07:15.242Z,11.40
2019-05-03T19:09:53.274Z,11.30
2019-05-03T19:12:35.715Z,11.30
2019-05-03T19:15:06.387Z,11.30
2019-05-03T19:17:56.390Z,11.30
2019-05-03T19:20:26.960Z,11.30
2019-05-03T19:22:57.589Z,11.20
2019-05-03T19:25:28.124Z,11.20
2019-05-03T19:27:58.688Z,11.10
2019-05-03T19:30:30.460Z,11.10
2019-05-03T19:33:01.063Z,11.10
2019-05-03T19:35:31.612Z,11.10
2019-05-03T19:38:02.199Z,11.00
2019-05-03T19:40:32.767Z,10.90
2019-05-03T19:43:05.132Z,10.80
2019-05-03T19:45:35.523Z,10.80
2019-05-03T19:48:06.192Z,10.70
2019-05-03T19:50:36.896Z,10.70
2019-05-03T19:53:21.560Z,10.70
2019-05-03T19:55:52.169Z,10.80
2019-05-03T19:58:24.747Z,10.80
2019-05-03T20:01:14.779Z,10.70
2019-05-03T20:03:54.611Z,10.70
2019-05-03T20:06:50.621Z,10.70
2019-05-03T20:09:21.940Z,10.60
2019-05-03T20:11:52.574Z,10.60
2019-05-03T20:14:23.072Z,10.60
2019-05-03T20:16:54.986Z,10.50
2019-05-03T20:19:25.890Z,10.50
2019-05-03T20:21:56.615Z,10.50
2019-05-03T20:24:30.677Z,10.40
2019-05-03T20:27:00.543Z,10.40
2019-05-03T20:29:31.141Z,10.40
2019-05-03T20:32:01.676Z,10.30
2019-05-03T20:34:32.241Z,10.30
2019-05-03T20:37:02.802Z,10.30
2019-05-03T20:39:34.795Z,10.20
2019-05-03T20:42:05.586Z,10.20
2019-05-03T20:44:44.772Z,10.30
2019-05-03T20:47:25.368Z,10.20
2019-05-03T20:50:15.405Z,10.20
2019-05-03T20:52:45.782Z,10.20
2019-05-03T20:55:16.716Z,10.20
2019-05-03T20:57:47.352Z,10.20
2019-05-03T21:00:20.906Z,10.10
2019-05-03T21:02:54.734Z,10.10
2019-05-03T21:08:14.844Z,10.10
2019-05-03T21:10:45.627Z,10.00
2019-05-03T21:13:16.216Z,10.00
2019-05-03T21:16:09.455Z,9.90
2019-05-03T21:18:48.891Z,9.90
2019-05-03T21:21:44.984Z,9.80
2019-05-03T21:24:24.202Z,9.80
2019-05-03T21:26:55.590Z,9.80
2019-05-03T21:29:26.067Z,9.80
2019-05-03T21:31:56.626Z,9.70
2019-05-03T21:34:27.248Z,9.70
2019-05-03T21:36:57.826Z,9.70
2019-05-03T21:39:28.439Z,9.70
2019-05-03T21:41:59.030Z,9.70
2019-05-03T21:44:33.704Z,9.60
2019-05-03T21:47:17.051Z,9.70
2019-05-03T21:49:47.673Z,9.60
2019-05-03T21:52:18.214Z,9.60
2019-05-03T21:54:48.820Z,9.60
2019-05-03T21:57:19.369Z,9.60
2019-05-03T21:59:50.923Z,9.60
2019-05-03T22:02:22.082Z,9.60
2019-05-03T22:04:52.700Z,9.60
2019-05-03T22:07:26.514Z,9.60
2019-05-03T22:09:55.500Z,9.60
2019-05-03T22:12:26.066Z,9.70
2019-05-03T22:15:06.088Z,9.70
2019-05-03T22:18:10.529Z,9.70
2019-05-03T22:21:08.638Z,9.70
2019-05-03T22:24:04.478Z,9.70
2019-05-03T22:26:52.792Z,9.70
2019-05-03T22:29:25.483Z,9.70
2019-05-03T22:31:55.608Z,9.60
2019-05-03T22:37:16.669Z,9.50
2019-05-03T22:39:47.742Z,9.50
2019-05-03T22:42:19.386Z,9.50
2019-05-03T22:44:49.998Z,9.40
2019-05-03T22:47:20.629Z,9.40
2019-05-03T22:49:51.289Z,9.40
2019-05-03T22:52:22.035Z,9.40
2019-05-03T22:54:52.633Z,9.40
2019-05-03T22:57:24.579Z,9.40
2019-05-03T22:59:55.242Z,9.40
2019-05-03T23:02:25.853Z,9.40
2019-05-03T23:04:56.422Z,9.50
2019-05-03T23:07:27.038Z,9.40
2019-05-03T23:09:57.660Z,9.40
2019-05-03T23:12:28.217Z,9.30
2019-05-03T23:14:58.849Z,9.30
2019-05-03T23:17:29.433Z,9.30
2019-05-03T23:20:06.055Z,9.30
2019-05-03T23:22:36.646Z,9.20
2019-05-03T23:25:07.428Z,9.20
2019-05-03T23:27:38.025Z,9.20
2019-05-03T23:30:08.724Z,9.20
2019-05-03T23:32:39.403Z,9.20
2019-05-03T23:35:10.036Z,9.10
2019-05-03T23:37:40.682Z,9.10
2019-05-03T23:40:11.501Z,9.10
2019-05-03T23:42:42.146Z,9.10
2019-05-03T23:45:14.792Z,9.10
2019-05-03T23:50:35.353Z,9.10
2019-05-03T23:53:06.012Z,9.10
2019-05-03T23:55:42.523Z,9.10
2019-05-03T23:58:13.164Z,9.10
